sensor_id;sensor_type;location;lat;lon;timestamp;pressure;altitude;pressure_sealevel;temperature;humidity
63500;BME280;49654;51.142;14.924;2023-05-25T00:00:32;99831.53;;;7.04;75.14
63500;BME280;49654;51.142;14.924;2023-05-25T00:02:59;99867.56;;;7.25;73.84
63500;BME280;49654;51.142;14.924;2023-05-25T00:05:28;99888.38;;;7.33;73.90
63500;BME280;49654;51.142;14.924;2023-05-25T00:07:55;99871.63;;;7.27;74.03
63500;BME280;49654;51.142;14.924;2023-05-25T00:10:22;99837.91;;;7.00;73.81
63500;BME280;49654;51.142;14.924;2023-05-25T00:12:51;99881.28;;;7.25;73.77
63500;BME280;49654;51.142;14.924;2023-05-25T00:15:18;99888.91;;;7.27;73.91
63500;BME280;49654;51.142;14.924;2023-05-25T00:17:45;99885.91;;;7.22;74.07
63500;BME280;49654;51.142;14.924;2023-05-25T00:20:14;99872.72;;;7.15;74.49
63500;BME280;49654;51.142;14.924;2023-05-25T00:22:43;99865.50;;;6.99;74.79
63500;BME280;49654;51.142;14.924;2023-05-25T00:25:11;99890.53;;;7.18;74.15
63500;BME280;49654;51.142;14.924;2023-05-25T00:27:38;99867.78;;;6.93;73.84
63500;BME280;49654;51.142;14.924;2023-05-25T00:30:07;99840.34;;;6.72;74.27
63500;BME280;49654;51.142;14.924;2023-05-25T00:32:34;99882.75;;;6.99;75.04
63500;BME280;49654;51.142;14.924;2023-05-25T00:35:01;99882.75;;;6.99;75.70
63500;BME280;49654;51.142;14.924;2023-05-25T00:37:28;99846.84;;;6.76;75.42
63500;BME280;49654;51.142;14.924;2023-05-25T00:39:55;99841.09;;;6.63;74.53
63500;BME280;49654;51.142;14.924;2023-05-25T00:42:23;99839.22;;;6.65;74.17
63500;BME280;49654;51.142;14.924;2023-05-25T00:44:50;99844.09;;;6.59;74.50
63500;BME280;49654;51.142;14.924;2023-05-25T00:47:18;99878.75;;;6.75;74.59
63500;BME280;49654;51.142;14.924;2023-05-25T00:49:45;99837.28;;;6.48;74.18
63500;BME280;49654;51.142;14.924;2023-05-25T00:52:13;99899.97;;;6.79;74.26
63500;BME280;49654;51.142;14.924;2023-05-25T00:54:42;99897.41;;;6.79;74.53
63500;BME280;49654;51.142;14.924;2023-05-25T00:57:12;99871.00;;;6.66;75.25
63500;BME280;49654;51.142;14.924;2023-05-25T00:59:45;99858.91;;;6.57;75.58
63500;BME280;49654;51.142;14.924;2023-05-25T01:02:15;99896.72;;;6.77;75.01
63500;BME280;49654;51.142;14.924;2023-05-25T01:04:46;99847.72;;;6.46;75.25
63500;BME280;49654;51.142;14.924;2023-05-25T01:07:18;99896.03;;;6.75;75.58
63500;BME280;49654;51.142;14.924;2023-05-25T01:09:49;99810.81;;;6.15;76.35
63500;BME280;49654;51.142;14.924;2023-05-25T01:12:21;99863.41;;;6.64;75.42
63500;BME280;49654;51.142;14.924;2023-05-25T01:14:48;99856.34;;;6.76;75.09
63500;BME280;49654;51.142;14.924;2023-05-25T01:17:18;99892.94;;;6.91;75.18
63500;BME280;49654;51.142;14.924;2023-05-25T01:19:47;99843.63;;;6.34;75.64
63500;BME280;49654;51.142;14.924;2023-05-25T01:22:19;99827.41;;;6.22;76.75
63500;BME280;49654;51.142;14.924;2023-05-25T01:24:49;99874.50;;;6.55;77.52
63500;BME280;49654;51.142;14.924;2023-05-25T01:27:22;99883.81;;;6.77;76.95
63500;BME280;49654;51.142;14.924;2023-05-25T01:29:51;99886.97;;;6.90;75.94
63500;BME280;49654;51.142;14.924;2023-05-25T01:32:19;99871.19;;;6.84;75.84
63500;BME280;49654;51.142;14.924;2023-05-25T01:34:47;99811.88;;;6.43;74.99
63500;BME280;49654;51.142;14.924;2023-05-25T01:37:18;99882.97;;;6.76;75.26
63500;BME280;49654;51.142;14.924;2023-05-25T01:39:48;99853.47;;;6.60;75.54
63500;BME280;49654;51.142;14.924;2023-05-25T01:42:15;99869.56;;;6.42;75.70
63500;BME280;49654;51.142;14.924;2023-05-25T01:44:42;99841.16;;;6.33;75.85
63500;BME280;49654;51.142;14.924;2023-05-25T01:47:21;99833.56;;;6.31;74.92
63500;BME280;49654;51.142;14.924;2023-05-25T01:49:54;99901.03;;;6.67;75.43
63500;BME280;49654;51.142;14.924;2023-05-25T01:52:27;99893.66;;;6.62;75.76
63500;BME280;49654;51.142;14.924;2023-05-25T01:55:00;99820.31;;;6.15;75.34
63500;BME280;49654;51.142;14.924;2023-05-25T01:57:29;99896.50;;;6.59;75.14
63500;BME280;49654;51.142;14.924;2023-05-25T01:59:57;99888.41;;;6.64;75.06
63500;BME280;49654;51.142;14.924;2023-05-25T02:02:28;99844.72;;;6.41;74.75
63500;BME280;49654;51.142;14.924;2023-05-25T02:04:55;99828.78;;;6.26;74.53
63500;BME280;49654;51.142;14.924;2023-05-25T02:07:22;99879.94;;;6.52;75.84
63500;BME280;49654;51.142;14.924;2023-05-25T02:09:51;99843.44;;;6.26;75.99
63500;BME280;49654;51.142;14.924;2023-05-25T02:12:18;99833.91;;;6.17;75.34
63500;BME280;49654;51.142;14.924;2023-05-25T02:14:45;99889.69;;;6.48;75.88
63500;BME280;49654;51.142;14.924;2023-05-25T02:17:13;99877.69;;;6.38;75.59
63500;BME280;49654;51.142;14.924;2023-05-25T02:19:42;99842.72;;;6.14;75.81
63500;BME280;49654;51.142;14.924;2023-05-25T02:22:09;99896.09;;;6.54;75.15
63500;BME280;49654;51.142;14.924;2023-05-25T02:24:36;99881.81;;;6.50;75.01
63500;BME280;49654;51.142;14.924;2023-05-25T02:27:05;99811.84;;;6.03;74.60
63500;BME280;49654;51.142;14.924;2023-05-25T02:29:32;99882.44;;;6.33;74.55
63500;BME280;49654;51.142;14.924;2023-05-25T02:31:59;99884.53;;;6.18;74.61
63500;BME280;49654;51.142;14.924;2023-05-25T02:34:26;99808.13;;;5.65;75.33
63500;BME280;49654;51.142;14.924;2023-05-25T02:36:53;99832.44;;;5.72;75.45
63500;BME280;49654;51.142;14.924;2023-05-25T02:39:20;99822.44;;;5.79;76.56
63500;BME280;49654;51.142;14.924;2023-05-25T02:41:47;99888.78;;;6.28;75.93
63500;BME280;49654;51.142;14.924;2023-05-25T02:44:15;99890.88;;;6.35;76.19
63500;BME280;49654;51.142;14.924;2023-05-25T02:46:42;99865.41;;;6.20;76.45
63500;BME280;49654;51.142;14.924;2023-05-25T02:49:09;99907.34;;;6.43;76.11
63500;BME280;49654;51.142;14.924;2023-05-25T02:51:36;99907.91;;;6.47;75.32
63500;BME280;49654;51.142;14.924;2023-05-25T02:54:03;99821.88;;;5.96;75.15
63500;BME280;49654;51.142;14.924;2023-05-25T02:56:30;99862.41;;;6.15;74.42
63500;BME280;49654;51.142;14.924;2023-05-25T02:58:57;99911.16;;;6.49;75.06
63500;BME280;49654;51.142;14.924;2023-05-25T03:01:25;99895.75;;;6.38;75.13
63500;BME280;49654;51.142;14.924;2023-05-25T03:03:55;99888.00;;;6.38;74.53
63500;BME280;49654;51.142;14.924;2023-05-25T03:06:22;99851.53;;;6.12;74.71
63500;BME280;49654;51.142;14.924;2023-05-25T03:08:50;99822.72;;;5.86;74.78
63500;BME280;49654;51.142;14.924;2023-05-25T03:11:17;99840.59;;;5.98;75.60
63500;BME280;49654;51.142;14.924;2023-05-25T03:13:44;99841.59;;;6.07;76.12
63500;BME280;49654;51.142;14.924;2023-05-25T03:16:11;99898.31;;;6.38;76.14
63500;BME280;49654;51.142;14.924;2023-05-25T03:18:40;99849.47;;;6.06;76.81
63500;BME280;49654;51.142;14.924;2023-05-25T03:21:07;99831.97;;;6.09;77.06
63500;BME280;49654;51.142;14.924;2023-05-25T03:23:34;99855.66;;;6.24;76.58
63500;BME280;49654;51.142;14.924;2023-05-25T03:26:01;99924.03;;;6.80;76.87
63500;BME280;49654;51.142;14.924;2023-05-25T03:28:28;99924.03;;;6.80;77.34
63500;BME280;49654;51.142;14.924;2023-05-25T03:30:55;99868.75;;;6.42;76.88
63500;BME280;49654;51.142;14.924;2023-05-25T03:33:22;99927.72;;;6.87;76.40
63500;BME280;49654;51.142;14.924;2023-05-25T03:35:50;99924.88;;;6.90;77.35
63500;BME280;49654;51.142;14.924;2023-05-25T03:38:18;99888.25;;;6.65;77.22
63500;BME280;49654;51.142;14.924;2023-05-25T03:40:45;99915.59;;;6.77;77.69
63500;BME280;49654;51.142;14.924;2023-05-25T03:43:12;99922.00;;;6.93;76.91
63500;BME280;49654;51.142;14.924;2023-05-25T03:45:39;99903.13;;;6.83;77.40
63500;BME280;49654;51.142;14.924;2023-05-25T03:48:06;99917.00;;;7.01;77.59
63500;BME280;49654;51.142;14.924;2023-05-25T03:50:33;99905.06;;;7.19;76.22
63500;BME280;49654;51.142;14.924;2023-05-25T03:53:01;99968.22;;;7.56;76.35
63500;BME280;49654;51.142;14.924;2023-05-25T03:55:28;99952.69;;;7.36;76.44
63500;BME280;49654;51.142;14.924;2023-05-25T03:57:55;99888.75;;;7.09;77.50
63500;BME280;49654;51.142;14.924;2023-05-25T04:00:25;99888.78;;;7.38;76.09
63500;BME280;49654;51.142;14.924;2023-05-25T04:02:53;99960.59;;;7.93;75.29
63500;BME280;49654;51.142;14.924;2023-05-25T04:05:24;99937.19;;;7.85;75.61
63500;BME280;49654;51.142;14.924;2023-05-25T04:07:51;99883.56;;;7.77;75.88
63500;BME280;49654;51.142;14.924;2023-05-25T04:10:19;99913.81;;;8.23;74.44
63500;BME280;49654;51.142;14.924;2023-05-25T04:12:46;99955.56;;;8.58;74.12
63500;BME280;49654;51.142;14.924;2023-05-25T04:15:13;99960.91;;;8.84;74.04
63500;BME280;49654;51.142;14.924;2023-05-25T04:17:40;99893.91;;;8.71;74.34
63500;BME280;49654;51.142;14.924;2023-05-25T04:20:08;99911.81;;;8.82;74.31
63500;BME280;49654;51.142;14.924;2023-05-25T04:22:35;99973.13;;;9.37;74.85
63500;BME280;49654;51.142;14.924;2023-05-25T04:25:04;99926.91;;;9.32;74.28
63500;BME280;49654;51.142;14.924;2023-05-25T04:27:33;99966.56;;;9.78;74.30
63500;BME280;49654;51.142;14.924;2023-05-25T04:30:00;99945.22;;;9.66;74.64
63500;BME280;49654;51.142;14.924;2023-05-25T04:32:27;99961.88;;;9.82;74.95
63500;BME280;49654;51.142;14.924;2023-05-25T04:34:54;99953.44;;;9.79;75.20
63500;BME280;49654;51.142;14.924;2023-05-25T04:37:21;99978.66;;;10.31;74.39
63500;BME280;49654;51.142;14.924;2023-05-25T04:39:52;99962.25;;;10.31;74.34
63500;BME280;49654;51.142;14.924;2023-05-25T04:42:19;99918.44;;;10.10;73.82
63500;BME280;49654;51.142;14.924;2023-05-25T04:44:50;99921.03;;;10.27;74.26
63500;BME280;49654;51.142;14.924;2023-05-25T04:47:20;99950.88;;;10.58;73.93
63500;BME280;49654;51.142;14.924;2023-05-25T04:49:47;99919.28;;;10.36;73.38
63500;BME280;49654;51.142;14.924;2023-05-25T04:52:14;99904.03;;;10.33;73.21
63500;BME280;49654;51.142;14.924;2023-05-25T04:54:41;99962.63;;;10.70;72.53
63500;BME280;49654;51.142;14.924;2023-05-25T04:57:08;99978.78;;;10.90;72.46
63500;BME280;49654;51.142;14.924;2023-05-25T04:59:35;99943.13;;;10.66;72.10
63500;BME280;49654;51.142;14.924;2023-05-25T05:02:04;99945.59;;;10.67;72.59
63500;BME280;49654;51.142;14.924;2023-05-25T05:04:31;99982.75;;;11.02;72.71
63500;BME280;49654;51.142;14.924;2023-05-25T05:06:58;99947.91;;;10.87;72.47
63500;BME280;49654;51.142;14.924;2023-05-25T05:09:25;99924.38;;;10.80;71.50
63500;BME280;49654;51.142;14.924;2023-05-25T05:11:52;99871.53;;;10.63;71.27
63500;BME280;49654;51.142;14.924;2023-05-25T05:14:19;99969.47;;;11.21;71.52
63500;BME280;49654;51.142;14.924;2023-05-25T05:16:46;99972.41;;;11.35;70.77
63500;BME280;49654;51.142;14.924;2023-05-25T05:19:14;99991.97;;;11.55;71.04
63500;BME280;49654;51.142;14.924;2023-05-25T05:21:41;99985.78;;;11.56;70.53
63500;BME280;49654;51.142;14.924;2023-05-25T05:24:08;99938.94;;;11.23;71.22
63500;BME280;49654;51.142;14.924;2023-05-25T05:26:37;99954.41;;;11.41;71.24
63500;BME280;49654;51.142;14.924;2023-05-25T05:29:04;99941.91;;;11.45;69.97
63500;BME280;49654;51.142;14.924;2023-05-25T05:31:31;99963.88;;;11.75;70.00
63500;BME280;49654;51.142;14.924;2023-05-25T05:33:59;99962.06;;;11.59;70.56
63500;BME280;49654;51.142;14.924;2023-05-25T05:36:27;99885.31;;;11.22;69.79
63500;BME280;49654;51.142;14.924;2023-05-25T05:38:55;99948.75;;;11.70;69.89
63500;BME280;49654;51.142;14.924;2023-05-25T05:41:22;99951.66;;;11.51;70.04
63500;BME280;49654;51.142;14.924;2023-05-25T05:43:49;99917.50;;;11.46;70.54
63500;BME280;49654;51.142;14.924;2023-05-25T05:46:16;99954.78;;;11.87;70.12
63500;BME280;49654;51.142;14.924;2023-05-25T05:48:42;99927.75;;;11.72;69.68
63500;BME280;49654;51.142;14.924;2023-05-25T05:51:10;99984.22;;;12.04;69.26
63500;BME280;49654;51.142;14.924;2023-05-25T05:53:38;99943.88;;;12.08;68.64
63500;BME280;49654;51.142;14.924;2023-05-25T05:56:05;99924.84;;;11.99;69.14
63500;BME280;49654;51.142;14.924;2023-05-25T05:58:32;99977.53;;;12.34;68.34
63500;BME280;49654;51.142;14.924;2023-05-25T06:00:59;99984.84;;;12.31;69.06
63500;BME280;49654;51.142;14.924;2023-05-25T06:03:26;99963.19;;;12.38;69.09
63500;BME280;49654;51.142;14.924;2023-05-25T06:05:54;99972.63;;;12.39;68.81
63500;BME280;49654;51.142;14.924;2023-05-25T06:08:21;99965.59;;;12.56;69.85
63500;BME280;49654;51.142;14.924;2023-05-25T06:10:49;99888.97;;;12.34;68.79
63500;BME280;49654;51.142;14.924;2023-05-25T06:13:16;99886.31;;;12.50;68.60
63500;BME280;49654;51.142;14.924;2023-05-25T06:15:43;99957.63;;;12.89;67.00
63500;BME280;49654;51.142;14.924;2023-05-25T06:18:10;99913.31;;;12.89;66.94
63500;BME280;49654;51.142;14.924;2023-05-25T06:20:37;99972.59;;;13.34;65.66
63500;BME280;49654;51.142;14.924;2023-05-25T06:23:04;99945.78;;;13.40;65.65
63500;BME280;49654;51.142;14.924;2023-05-25T06:25:32;99934.53;;;13.40;65.44
63500;BME280;49654;51.142;14.924;2023-05-25T06:28:00;99906.38;;;13.35;66.39
63500;BME280;49654;51.142;14.924;2023-05-25T06:30:27;99873.69;;;13.24;65.97
63500;BME280;49654;51.142;14.924;2023-05-25T06:32:55;99959.28;;;13.90;63.78
63500;BME280;49654;51.142;14.924;2023-05-25T06:35:22;99973.91;;;13.99;64.40
63500;BME280;49654;51.142;14.924;2023-05-25T06:37:49;99948.44;;;14.01;64.14
63500;BME280;49654;51.142;14.924;2023-05-25T06:40:16;99949.53;;;14.21;63.30
63500;BME280;49654;51.142;14.924;2023-05-25T06:42:43;99947.22;;;14.26;62.22
63500;BME280;49654;51.142;14.924;2023-05-25T06:45:12;99899.69;;;13.93;63.04
63500;BME280;49654;51.142;14.924;2023-05-25T06:47:39;99905.22;;;14.28;63.16
63500;BME280;49654;51.142;14.924;2023-05-25T06:50:07;99929.22;;;14.61;63.02
63500;BME280;49654;51.142;14.924;2023-05-25T06:52:35;99969.91;;;14.85;63.44
63500;BME280;49654;51.142;14.924;2023-05-25T06:55:02;99965.56;;;15.07;61.53
63500;BME280;49654;51.142;14.924;2023-05-25T06:57:30;99966.19;;;15.09;60.41
63500;BME280;49654;51.142;14.924;2023-05-25T06:59:56;99896.00;;;14.76;60.70
63500;BME280;49654;51.142;14.924;2023-05-25T07:02:25;99905.69;;;14.97;61.27
63500;BME280;49654;51.142;14.924;2023-05-25T07:04:52;99964.97;;;15.26;60.88
63500;BME280;49654;51.142;14.924;2023-05-25T07:07:19;99940.94;;;15.01;61.33
63500;BME280;49654;51.142;14.924;2023-05-25T07:09:47;99967.03;;;15.31;61.83
63500;BME280;49654;51.142;14.924;2023-05-25T07:12:13;99872.88;;;14.95;60.31
63500;BME280;49654;51.142;14.924;2023-05-25T07:14:41;99960.25;;;15.80;59.82
63500;BME280;49654;51.142;14.924;2023-05-25T07:17:09;99888.22;;;15.41;59.92
63500;BME280;49654;51.142;14.924;2023-05-25T07:19:38;99944.28;;;15.68;59.55
63500;BME280;49654;51.142;14.924;2023-05-25T07:22:07;99956.06;;;16.07;59.86
63500;BME280;49654;51.142;14.924;2023-05-25T07:24:34;99957.47;;;16.37;58.98
63500;BME280;49654;51.142;14.924;2023-05-25T07:27:02;99937.00;;;16.19;57.27
63500;BME280;49654;51.142;14.924;2023-05-25T07:29:29;99936.59;;;16.22;57.54
63500;BME280;49654;51.142;14.924;2023-05-25T07:31:56;99959.34;;;16.50;57.25
63500;BME280;49654;51.142;14.924;2023-05-25T07:34:22;99958.03;;;16.67;57.81
63500;BME280;49654;51.142;14.924;2023-05-25T07:36:51;99972.25;;;16.86;56.68
63500;BME280;49654;51.142;14.924;2023-05-25T07:39:18;99973.31;;;16.98;53.68
63500;BME280;49654;51.142;14.924;2023-05-25T07:41:45;99981.13;;;16.85;54.58
63500;BME280;49654;51.142;14.924;2023-05-25T07:44:11;99973.28;;;16.85;54.44
63500;BME280;49654;51.142;14.924;2023-05-25T07:46:38;99982.41;;;17.02;54.93
63500;BME280;49654;51.142;14.924;2023-05-25T07:49:05;99972.69;;;16.90;54.63
63500;BME280;49654;51.142;14.924;2023-05-25T07:51:36;99927.03;;;16.77;55.59
63500;BME280;49654;51.142;14.924;2023-05-25T07:54:04;99921.06;;;16.56;53.60
63500;BME280;49654;51.142;14.924;2023-05-25T07:56:31;99976.31;;;16.89;53.61
63500;BME280;49654;51.142;14.924;2023-05-25T07:58:58;99958.13;;;16.81;53.97
63500;BME280;49654;51.142;14.924;2023-05-25T08:01:25;99985.47;;;17.13;54.17
63500;BME280;49654;51.142;14.924;2023-05-25T08:03:52;99923.44;;;16.85;56.00
63500;BME280;49654;51.142;14.924;2023-05-25T08:06:19;99985.16;;;17.42;54.93
63500;BME280;49654;51.142;14.924;2023-05-25T08:08:46;99991.84;;;17.45;52.98
63500;BME280;49654;51.142;14.924;2023-05-25T08:11:16;99941.91;;;17.25;53.77
63500;BME280;49654;51.142;14.924;2023-05-25T08:13:43;99948.22;;;17.50;53.45
63500;BME280;49654;51.142;14.924;2023-05-25T08:16:10;99990.63;;;17.54;53.27
63500;BME280;49654;51.142;14.924;2023-05-25T08:18:37;99994.34;;;17.93;53.34
63500;BME280;49654;51.142;14.924;2023-05-25T08:21:05;99991.91;;;18.05;50.47
63500;BME280;49654;51.142;14.924;2023-05-25T08:23:32;99957.94;;;17.76;51.77
63500;BME280;49654;51.142;14.924;2023-05-25T08:25:59;99992.72;;;17.98;49.52
63500;BME280;49654;51.142;14.924;2023-05-25T08:28:28;99927.00;;;17.52;48.22
63500;BME280;49654;51.142;14.924;2023-05-25T08:30:55;99985.44;;;18.27;50.39
63500;BME280;49654;51.142;14.924;2023-05-25T08:33:23;99963.78;;;18.32;47.73
63500;BME280;49654;51.142;14.924;2023-05-25T08:35:50;99965.16;;;18.41;47.89
63500;BME280;49654;51.142;14.924;2023-05-25T08:38:17;99971.81;;;18.63;46.39
63500;BME280;49654;51.142;14.924;2023-05-25T08:40:44;99968.38;;;18.69;47.63
63500;BME280;49654;51.142;14.924;2023-05-25T08:43:11;99995.19;;;18.91;48.71
63500;BME280;49654;51.142;14.924;2023-05-25T08:45:41;99989.47;;;19.46;46.34
63500;BME280;49654;51.142;14.924;2023-05-25T08:48:09;99920.94;;;18.83;44.80
63500;BME280;49654;51.142;14.924;2023-05-25T08:50:37;99988.53;;;19.34;45.18
63500;BME280;49654;51.142;14.924;2023-05-25T08:53:07;99982.50;;;18.75;43.65
63500;BME280;49654;51.142;14.924;2023-05-25T08:55:37;99991.50;;;19.06;43.53
63500;BME280;49654;51.142;14.924;2023-05-25T08:58:12;99936.03;;;19.07;44.80
63500;BME280;49654;51.142;14.924;2023-05-25T09:00:48;99995.06;;;19.56;43.16
63500;BME280;49654;51.142;14.924;2023-05-25T09:03:16;99978.03;;;19.59;45.33
63500;BME280;49654;51.142;14.924;2023-05-25T09:05:43;99983.22;;;19.79;43.06
63500;BME280;49654;51.142;14.924;2023-05-25T09:08:11;99990.28;;;20.03;44.13
63500;BME280;49654;51.142;14.924;2023-05-25T09:10:39;99999.13;;;19.59;43.76
63500;BME280;49654;51.142;14.924;2023-05-25T09:13:06;99932.66;;;18.93;44.96
63500;BME280;49654;51.142;14.924;2023-05-25T09:15:33;99981.03;;;19.31;44.75
63500;BME280;49654;51.142;14.924;2023-05-25T09:18:02;99881.72;;;18.74;42.96
63500;BME280;49654;51.142;14.924;2023-05-25T09:20:29;99988.44;;;19.09;44.32
63500;BME280;49654;51.142;14.924;2023-05-25T09:22:57;99965.75;;;19.14;42.95
63500;BME280;49654;51.142;14.924;2023-05-25T09:25:25;99985.13;;;19.58;44.87
63500;BME280;49654;51.142;14.924;2023-05-25T09:27:53;100002.97;;;19.63;43.12
63500;BME280;49654;51.142;14.924;2023-05-25T09:30:23;100008.41;;;19.68;42.46
63500;BME280;49654;51.142;14.924;2023-05-25T09:32:50;99992.28;;;19.51;41.83
63500;BME280;49654;51.142;14.924;2023-05-25T09:35:18;99997.94;;;19.48;42.83
63500;BME280;49654;51.142;14.924;2023-05-25T09:37:47;99999.03;;;19.40;40.90
63500;BME280;49654;51.142;14.924;2023-05-25T09:40:14;99998.72;;;19.55;42.01
63500;BME280;49654;51.142;14.924;2023-05-25T09:42:41;99997.13;;;19.54;42.41
63500;BME280;49654;51.142;14.924;2023-05-25T09:45:09;99976.88;;;19.48;42.27
63500;BME280;49654;51.142;14.924;2023-05-25T09:47:36;100001.28;;;19.75;43.34
63500;BME280;49654;51.142;14.924;2023-05-25T09:50:03;99991.03;;;20.10;42.72
63500;BME280;49654;51.142;14.924;2023-05-25T09:52:32;99990.78;;;21.10;41.00
63500;BME280;49654;51.142;14.924;2023-05-25T09:55:00;99996.59;;;22.38;37.51
63500;BME280;49654;51.142;14.924;2023-05-25T09:57:28;99994.28;;;24.30;35.10
63500;BME280;49654;51.142;14.924;2023-05-25T09:59:55;99992.53;;;26.25;31.59
63500;BME280;49654;51.142;14.924;2023-05-25T10:02:22;99991.63;;;28.26;28.68
63500;BME280;49654;51.142;14.924;2023-05-25T10:04:49;99992.34;;;28.62;27.53
63500;BME280;49654;51.142;14.924;2023-05-25T10:07:16;99989.13;;;28.65;27.64
63500;BME280;49654;51.142;14.924;2023-05-25T10:09:45;99947.63;;;28.78;28.54
63500;BME280;49654;51.142;14.924;2023-05-25T10:12:16;99999.47;;;28.82;26.38
63500;BME280;49654;51.142;14.924;2023-05-25T10:14:45;99999.88;;;28.35;28.64
63500;BME280;49654;51.142;14.924;2023-05-25T10:17:16;100003.06;;;25.72;29.64
63500;BME280;49654;51.142;14.924;2023-05-25T10:19:52;100002.41;;;25.06;31.47
63500;BME280;49654;51.142;14.924;2023-05-25T10:22:24;99993.28;;;24.74;33.38
63500;BME280;49654;51.142;14.924;2023-05-25T10:24:58;99979.19;;;24.52;32.51
63500;BME280;49654;51.142;14.924;2023-05-25T10:27:33;99974.88;;;23.90;34.35
63500;BME280;49654;51.142;14.924;2023-05-25T10:30:04;100004.84;;;22.77;35.26
63500;BME280;49654;51.142;14.924;2023-05-25T10:32:32;100005.00;;;22.11;35.86
63500;BME280;49654;51.142;14.924;2023-05-25T10:35:00;99992.50;;;21.65;38.73
63500;BME280;49654;51.142;14.924;2023-05-25T10:37:29;99975.06;;;20.67;39.98
63500;BME280;49654;51.142;14.924;2023-05-25T10:39:59;99990.63;;;21.23;37.24
63500;BME280;49654;51.142;14.924;2023-05-25T10:42:26;99892.34;;;20.91;39.64
63500;BME280;49654;51.142;14.924;2023-05-25T10:44:55;99976.13;;;21.14;38.16
63500;BME280;49654;51.142;14.924;2023-05-25T10:47:23;99992.09;;;21.19;39.40
63500;BME280;49654;51.142;14.924;2023-05-25T10:49:52;99952.81;;;21.11;38.98
63500;BME280;49654;51.142;14.924;2023-05-25T10:52:19;99979.72;;;21.50;40.14
63500;BME280;49654;51.142;14.924;2023-05-25T10:54:47;99995.47;;;22.34;36.51
63500;BME280;49654;51.142;14.924;2023-05-25T10:57:20;99992.84;;;22.97;34.90
63500;BME280;49654;51.142;14.924;2023-05-25T10:59:47;99959.50;;;23.92;36.41
63500;BME280;49654;51.142;14.924;2023-05-25T11:02:15;99960.13;;;25.58;32.54
63500;BME280;49654;51.142;14.924;2023-05-25T11:04:46;99994.97;;;25.89;31.91
63500;BME280;49654;51.142;14.924;2023-05-25T11:07:14;99988.28;;;26.23;29.71
63500;BME280;49654;51.142;14.924;2023-05-25T11:09:54;99952.72;;;27.33;29.06
63500;BME280;49654;51.142;14.924;2023-05-25T11:12:23;99965.59;;;29.56;27.58
63500;BME280;49654;51.142;14.924;2023-05-25T11:15:11;99975.47;;;30.62;23.00
63500;BME280;49654;51.142;14.924;2023-05-25T11:17:57;99957.69;;;31.60;23.16
63500;BME280;49654;51.142;14.924;2023-05-25T11:20:27;99918.16;;;31.01;23.29
63500;BME280;49654;51.142;14.924;2023-05-25T11:22:56;99937.31;;;30.51;23.23
63500;BME280;49654;51.142;14.924;2023-05-25T11:25:35;99980.25;;;31.27;22.58
63500;BME280;49654;51.142;14.924;2023-05-25T11:28:06;99965.09;;;31.17;23.14
63500;BME280;49654;51.142;14.924;2023-05-25T11:30:33;99967.97;;;31.72;22.52
63500;BME280;49654;51.142;14.924;2023-05-25T11:33:02;99957.22;;;32.19;21.15
63500;BME280;49654;51.142;14.924;2023-05-25T11:35:30;99906.88;;;31.97;20.76
63500;BME280;49654;51.142;14.924;2023-05-25T11:38:04;99949.91;;;34.18;20.54
63500;BME280;49654;51.142;14.924;2023-05-25T11:40:31;99954.19;;;34.27;20.22
63500;BME280;49654;51.142;14.924;2023-05-25T11:42:59;99957.63;;;35.20;19.35
63500;BME280;49654;51.142;14.924;2023-05-25T11:45:30;99938.66;;;37.93;16.18
63500;BME280;49654;51.142;14.924;2023-05-25T11:47:59;99936.00;;;38.98;15.30
63500;BME280;49654;51.142;14.924;2023-05-25T11:50:26;99913.41;;;38.54;15.10
63500;BME280;49654;51.142;14.924;2023-05-25T11:52:53;99931.88;;;38.36;15.73
63500;BME280;49654;51.142;14.924;2023-05-25T11:55:20;99925.78;;;38.02;15.13
63500;BME280;49654;51.142;14.924;2023-05-25T11:57:54;99886.28;;;37.31;16.35
63500;BME280;49654;51.142;14.924;2023-05-25T12:00:26;99891.38;;;35.86;17.07
63500;BME280;49654;51.142;14.924;2023-05-25T12:02:55;99938.22;;;37.00;16.78
63500;BME280;49654;51.142;14.924;2023-05-25T12:05:22;99895.22;;;36.45;16.25
63500;BME280;49654;51.142;14.924;2023-05-25T12:07:49;99933.91;;;37.78;16.52
63500;BME280;49654;51.142;14.924;2023-05-25T12:10:16;99933.28;;;38.98;15.04
63500;BME280;49654;51.142;14.924;2023-05-25T12:12:45;99921.38;;;39.78;14.87
63500;BME280;49654;51.142;14.924;2023-05-25T12:15:13;99927.88;;;39.42;15.11
63500;BME280;49654;51.142;14.924;2023-05-25T12:17:43;99891.06;;;39.29;14.29
63500;BME280;49654;51.142;14.924;2023-05-25T12:20:13;99920.47;;;38.06;15.57
63500;BME280;49654;51.142;14.924;2023-05-25T12:22:42;99890.75;;;38.34;14.78
63500;BME280;49654;51.142;14.924;2023-05-25T12:25:10;99903.97;;;40.69;13.70
63500;BME280;49654;51.142;14.924;2023-05-25T12:27:37;99902.13;;;42.41;13.38
63500;BME280;49654;51.142;14.924;2023-05-25T12:30:07;99907.84;;;41.79;12.52
63500;BME280;49654;51.142;14.924;2023-05-25T12:32:34;99897.41;;;43.06;11.99
63500;BME280;49654;51.142;14.924;2023-05-25T12:35:03;99902.66;;;41.71;12.30
63500;BME280;49654;51.142;14.924;2023-05-25T12:37:32;99888.34;;;39.29;13.71
63500;BME280;49654;51.142;14.924;2023-05-25T12:40:00;99853.75;;;37.65;14.19
63500;BME280;49654;51.142;14.924;2023-05-25T12:42:26;99839.25;;;38.09;15.54
63500;BME280;49654;51.142;14.924;2023-05-25T12:44:56;99886.03;;;39.94;13.21
63500;BME280;49654;51.142;14.924;2023-05-25T12:47:25;99875.59;;;39.17;13.82
63500;BME280;49654;51.142;14.924;2023-05-25T12:50:10;99842.75;;;39.70;13.72
63500;BME280;49654;51.142;14.924;2023-05-25T12:52:39;99872.25;;;39.87;13.59
63500;BME280;49654;51.142;14.924;2023-05-25T12:55:21;99870.47;;;40.88;12.77
63500;BME280;49654;51.142;14.924;2023-05-25T12:57:52;99876.22;;;41.25;13.48